createdAt,value
2023-04-18T00:01:42.882Z,14.90
2023-04-18T00:04:09.523Z,14.90
2023-04-18T00:06:36.136Z,14.90
2023-04-18T00:09:02.654Z,15.00
2023-04-18T00:11:29.167Z,15.00
2023-04-18T00:13:55.632Z,15.00
2023-04-18T00:16:22.146Z,15.00
2023-04-18T00:18:48.633Z,14.90
2023-04-18T00:21:15.118Z,14.90
2023-04-18T00:23:41.599Z,14.90
2023-04-18T00:26:08.076Z,14.90
2023-04-18T00:28:34.545Z,14.90
2023-04-18T00:31:01.039Z,14.90
2023-04-18T00:33:27.537Z,14.90
2023-04-18T00:35:54.009Z,14.90
2023-04-18T00:38:20.473Z,14.90
2023-04-18T00:40:46.933Z,15.00
2023-04-18T00:43:13.430Z,14.90
2023-04-18T00:45:39.925Z,14.90
2023-04-18T00:48:06.421Z,15.00
2023-04-18T00:50:32.949Z,15.00
2023-04-18T00:52:59.415Z,14.90
2023-04-18T00:55:25.888Z,15.00
2023-04-18T00:57:52.372Z,15.00
2023-04-18T01:00:18.836Z,15.00
2023-04-18T01:02:45.440Z,15.00
2023-04-18T01:05:11.986Z,15.00
2023-04-18T01:07:38.451Z,15.00
2023-04-18T01:10:04.978Z,14.90
2023-04-18T01:12:31.453Z,15.00
2023-04-18T01:14:57.919Z,15.00
2023-04-18T01:17:24.421Z,15.00
2023-04-18T01:19:51.063Z,15.00
2023-04-18T01:22:17.589Z,15.00
2023-04-18T01:24:44.068Z,14.90
2023-04-18T01:27:10.541Z,14.90
2023-04-18T01:29:38.910Z,14.90
2023-04-18T01:32:05.493Z,15.00
2023-04-18T01:34:31.954Z,14.90
2023-04-18T01:36:58.429Z,14.90
2023-04-18T01:39:24.885Z,15.00
2023-04-18T01:41:51.355Z,15.00
2023-04-18T01:44:17.821Z,15.00
2023-04-18T01:46:44.332Z,15.00
2023-04-18T01:49:10.814Z,14.90
2023-04-18T01:51:37.277Z,14.90
2023-04-18T01:54:03.729Z,14.90
2023-04-18T01:56:30.184Z,14.90
2023-04-18T01:58:56.639Z,14.90
2023-04-18T02:01:23.210Z,14.90
2023-04-18T02:03:49.957Z,14.90
2023-04-18T02:06:20.998Z,14.90
2023-04-18T02:08:47.454Z,14.90
2023-04-18T02:11:13.904Z,14.90
2023-04-18T02:13:40.377Z,14.90
2023-04-18T02:16:06.867Z,14.90
2023-04-18T02:18:33.355Z,14.90
2023-04-18T02:20:59.809Z,14.90
2023-04-18T02:23:26.287Z,15.00
2023-04-18T02:25:52.755Z,15.00
2023-04-18T02:28:19.235Z,15.00
2023-04-18T02:30:45.688Z,14.90
2023-04-18T02:33:12.172Z,14.90
2023-04-18T02:35:38.665Z,14.90
2023-04-18T02:38:05.175Z,14.90
2023-04-18T02:40:31.637Z,14.90
2023-04-18T02:42:58.104Z,14.90
2023-04-18T02:45:24.601Z,15.00
2023-04-18T02:47:55.146Z,14.90
2023-04-18T02:50:22.297Z,14.90
2023-04-18T02:52:48.799Z,14.90
2023-04-18T02:55:15.282Z,14.90
2023-04-18T02:57:41.799Z,14.90
2023-04-18T03:00:08.268Z,14.80
2023-04-18T03:02:34.909Z,14.80
2023-04-18T03:05:01.574Z,14.80
2023-04-18T03:07:28.112Z,14.90
2023-04-18T03:09:54.577Z,14.90
2023-04-18T03:12:21.055Z,14.90
2023-04-18T03:14:47.544Z,14.80
2023-04-18T03:17:14.008Z,14.80
2023-04-18T03:19:40.475Z,14.80
2023-04-18T03:22:06.944Z,14.80
2023-04-18T03:24:33.427Z,14.80
2023-04-18T03:26:59.920Z,14.90
2023-04-18T03:29:26.426Z,14.80
2023-04-18T03:31:52.914Z,14.80
2023-04-18T03:34:19.387Z,14.90
2023-04-18T03:36:47.864Z,14.90
2023-04-18T03:39:14.749Z,14.90
2023-04-18T03:41:41.223Z,14.80
2023-04-18T03:44:07.725Z,14.80
2023-04-18T03:46:34.249Z,14.80
2023-04-18T03:49:00.799Z,14.80
2023-04-18T03:51:27.254Z,14.90
2023-04-18T03:53:53.723Z,14.80
2023-04-18T03:56:20.195Z,14.80
2023-04-18T03:58:51.131Z,14.80
2023-04-18T04:01:17.611Z,14.80
2023-04-18T04:03:44.246Z,14.80
2023-04-18T04:06:10.818Z,14.90
2023-04-18T04:08:37.310Z,14.80
2023-04-18T04:11:03.789Z,14.90
2023-04-18T04:13:30.283Z,14.80
2023-04-18T04:15:56.825Z,14.90
2023-04-18T04:18:27.152Z,14.80
2023-04-18T04:20:53.605Z,14.80
2023-04-18T04:23:20.061Z,14.80
2023-04-18T04:25:46.530Z,14.80
2023-04-18T04:28:12.999Z,14.80
2023-04-18T04:30:39.477Z,14.80
2023-04-18T04:33:05.999Z,14.80
2023-04-18T04:35:32.512Z,14.80
2023-04-18T04:37:58.957Z,14.80
2023-04-18T04:40:25.489Z,14.80
2023-04-18T04:42:51.955Z,14.80
2023-04-18T04:45:18.425Z,14.80
2023-04-18T04:47:44.908Z,14.80
2023-04-18T04:50:11.448Z,14.80
2023-04-18T04:52:37.925Z,14.80
2023-04-18T04:55:04.473Z,14.70
2023-04-18T04:57:30.949Z,14.80
2023-04-18T04:59:57.417Z,14.80
2023-04-18T05:02:24.090Z,14.80
2023-04-18T05:04:50.674Z,14.60
2023-04-18T05:07:17.153Z,14.70
2023-04-18T05:09:43.701Z,14.70
2023-04-18T05:12:10.221Z,14.80
2023-04-18T05:14:36.684Z,14.80
2023-04-18T05:17:03.234Z,14.70
2023-04-18T05:19:33.174Z,14.80
2023-04-18T05:21:59.645Z,14.70
2023-04-18T05:24:26.129Z,14.60
2023-04-18T05:26:52.596Z,14.60
2023-04-18T05:29:19.074Z,14.60
2023-04-18T05:31:45.542Z,14.60
2023-04-18T05:34:12.424Z,14.60
2023-04-18T05:36:38.978Z,14.70
2023-04-18T05:39:05.486Z,14.70
2023-04-18T05:41:31.982Z,14.80
2023-04-18T05:44:05.229Z,14.80
2023-04-18T05:46:32.346Z,14.80
2023-04-18T05:48:58.870Z,14.80
2023-04-18T05:51:25.335Z,14.80
2023-04-18T05:53:51.807Z,14.70
2023-04-18T05:56:18.299Z,14.70
2023-04-18T05:58:44.782Z,14.80
2023-04-18T06:01:11.257Z,14.70
2023-04-18T06:03:37.963Z,14.70
2023-04-18T06:06:04.688Z,14.70
2023-04-18T06:08:31.146Z,14.70
2023-04-18T06:10:57.635Z,14.60
2023-04-18T06:13:24.122Z,14.70
2023-04-18T06:15:50.695Z,14.80
2023-04-18T06:18:17.222Z,14.70
2023-04-18T06:20:43.748Z,14.70
2023-04-18T06:23:10.256Z,14.70
2023-04-18T06:25:36.760Z,14.70
2023-04-18T06:28:03.219Z,14.70
2023-04-18T06:30:29.708Z,14.70
2023-04-18T06:32:56.285Z,14.70
2023-04-18T06:35:24.581Z,14.70
2023-04-18T06:37:52.391Z,14.70
2023-04-18T06:40:19.604Z,14.70
2023-04-18T06:42:46.074Z,14.80
2023-04-18T06:45:12.567Z,14.70
2023-04-18T06:47:39.041Z,14.70
2023-04-18T06:50:05.577Z,14.70
2023-04-18T06:52:32.063Z,14.70
2023-04-18T06:54:58.550Z,14.70
2023-04-18T06:57:25.009Z,14.60
2023-04-18T06:59:51.465Z,14.70
2023-04-18T07:02:18.037Z,14.70
2023-04-18T07:04:44.682Z,14.70
2023-04-18T07:07:11.274Z,14.60
2023-04-18T07:09:37.761Z,14.60
2023-04-18T07:12:04.242Z,14.60
2023-04-18T07:14:32.894Z,14.70
2023-04-18T07:17:03.347Z,14.70
2023-04-18T07:19:29.862Z,14.70
2023-04-18T07:21:56.317Z,14.60
2023-04-18T07:24:22.800Z,14.60
2023-04-18T07:26:49.282Z,14.60
2023-04-18T07:29:15.735Z,14.70
2023-04-18T07:31:42.220Z,14.70
2023-04-18T07:34:08.688Z,14.70
2023-04-18T07:36:35.161Z,14.60
2023-04-18T07:39:01.669Z,14.70
2023-04-18T07:41:28.174Z,14.70
2023-04-18T07:43:54.658Z,14.70
2023-04-18T07:46:21.226Z,14.70
2023-04-18T07:48:47.717Z,14.70
2023-04-18T07:51:14.196Z,14.70
2023-04-18T07:53:40.649Z,14.70
2023-04-18T07:56:07.112Z,14.70
2023-04-18T07:58:33.604Z,14.60
2023-04-18T08:01:00.106Z,14.60
2023-04-18T08:03:26.784Z,14.60
2023-04-18T08:05:53.386Z,14.60
2023-04-18T08:08:19.913Z,14.60
2023-04-18T08:10:46.442Z,14.70
2023-04-18T08:13:12.929Z,14.70
2023-04-18T08:15:39.429Z,14.70
2023-04-18T08:18:05.896Z,14.70
2023-04-18T08:20:32.398Z,14.80
2023-04-18T08:23:07.313Z,14.80
2023-04-18T08:25:34.270Z,14.80
2023-04-18T08:28:00.731Z,14.70
2023-04-18T08:30:27.214Z,14.60
2023-04-18T08:32:53.751Z,14.60
2023-04-18T08:35:20.289Z,14.70
2023-04-18T08:37:46.747Z,14.80
2023-04-18T08:40:13.202Z,14.80
2023-04-18T08:42:39.680Z,14.80
2023-04-18T08:45:06.149Z,14.80
2023-04-18T08:47:32.638Z,14.80
2023-04-18T08:49:59.110Z,14.80
2023-04-18T08:52:25.563Z,14.80
2023-04-18T08:54:52.044Z,14.80
2023-04-18T08:57:18.516Z,14.80
2023-04-18T08:59:45.953Z,14.80
2023-04-18T09:02:13.677Z,14.80
2023-04-18T09:04:40.200Z,14.80
2023-04-18T09:07:06.666Z,14.80
2023-04-18T09:09:33.135Z,14.80
2023-04-18T09:11:59.621Z,14.80
2023-04-18T09:14:26.138Z,14.80
2023-04-18T09:16:52.674Z,14.80
2023-04-18T09:19:19.221Z,14.80
2023-04-18T09:21:45.753Z,14.80
2023-04-18T09:24:12.412Z,14.80
2023-04-18T09:26:38.957Z,14.80
2023-04-18T09:29:05.434Z,14.80
2023-04-18T09:31:32.021Z,14.70
2023-04-18T09:33:58.558Z,14.70
2023-04-18T09:36:25.120Z,14.80
2023-04-18T09:38:53.717Z,14.70
2023-04-18T09:41:21.982Z,14.70
2023-04-18T09:43:48.469Z,14.70
2023-04-18T09:46:15.020Z,14.80
2023-04-18T09:48:41.515Z,14.80
2023-04-18T09:51:08.010Z,14.80
2023-04-18T09:53:34.506Z,14.80
2023-04-18T09:56:00.975Z,14.80
2023-04-18T09:58:27.701Z,14.80
2023-04-18T10:00:54.190Z,14.80
2023-04-18T10:03:20.811Z,14.80
2023-04-18T10:05:47.575Z,14.80
2023-04-18T10:08:14.131Z,14.80
2023-04-18T10:10:40.643Z,14.70
2023-04-18T10:13:07.141Z,14.80
2023-04-18T10:15:33.679Z,14.80
2023-04-18T10:18:05.414Z,14.80
2023-04-18T10:20:32.423Z,14.70
2023-04-18T10:22:58.894Z,14.80
2023-04-18T10:25:25.357Z,14.80
2023-04-18T10:27:51.842Z,14.80
2023-04-18T10:30:18.324Z,14.80
2023-04-18T10:32:44.846Z,14.80
2023-04-18T10:35:11.341Z,14.80
2023-04-18T10:37:37.852Z,14.90
2023-04-18T10:40:04.308Z,14.90
2023-04-18T10:42:30.830Z,14.90
2023-04-18T10:44:57.435Z,14.70
2023-04-18T10:47:24.031Z,14.80
2023-04-18T10:49:50.568Z,14.70
2023-04-18T10:52:17.040Z,14.80
2023-04-18T10:54:43.509Z,14.80
2023-04-18T10:57:10.014Z,14.80
2023-04-18T10:59:36.492Z,14.80
2023-04-18T11:02:03.011Z,14.70
2023-04-18T11:04:29.558Z,14.80
2023-04-18T11:06:57.462Z,14.80
2023-04-18T11:09:23.929Z,14.90
2023-04-18T11:11:50.437Z,14.80
2023-04-18T11:14:17.174Z,14.90
2023-04-18T11:16:43.801Z,14.80
2023-04-18T11:19:10.263Z,14.80
2023-04-18T11:21:36.771Z,14.80
2023-04-18T11:24:03.246Z,14.80
2023-04-18T11:26:29.725Z,14.80
2023-04-18T11:28:56.211Z,14.80
2023-04-18T11:31:22.774Z,14.90
2023-04-18T11:33:49.308Z,14.80
2023-04-18T11:36:15.788Z,14.80
2023-04-18T11:38:42.257Z,14.80
2023-04-18T11:41:08.732Z,14.80
2023-04-18T11:43:35.224Z,14.80
2023-04-18T11:46:01.919Z,14.80
2023-04-18T11:48:28.507Z,14.80
2023-04-18T11:50:54.984Z,14.80
2023-04-18T11:53:21.460Z,14.80
2023-04-18T11:55:47.938Z,14.80
2023-04-18T11:58:14.401Z,14.80
2023-04-18T12:00:40.872Z,14.80
2023-04-18T12:03:07.401Z,14.90
2023-04-18T12:05:34.083Z,14.90
2023-04-18T12:08:00.681Z,14.90
2023-04-18T12:10:27.138Z,14.90
2023-04-18T12:12:53.623Z,14.90
2023-04-18T12:15:20.100Z,14.90
2023-04-18T12:17:46.882Z,14.90
2023-04-18T12:20:13.461Z,15.00
2023-04-18T12:22:39.961Z,15.00
2023-04-18T12:25:06.442Z,15.10
2023-04-18T12:27:32.938Z,15.10
2023-04-18T12:29:59.410Z,15.10
2023-04-18T12:32:25.881Z,15.10
2023-04-18T12:34:52.363Z,15.10
2023-04-18T12:37:18.842Z,15.10
2023-04-18T12:39:45.310Z,15.10
2023-04-18T12:42:11.787Z,15.10
2023-04-18T12:44:38.255Z,15.10
2023-04-18T12:47:04.804Z,15.00
2023-04-18T12:49:31.334Z,15.10
2023-04-18T12:51:57.800Z,15.10
2023-04-18T12:54:24.274Z,15.10
2023-04-18T12:56:50.857Z,15.20
2023-04-18T12:59:17.386Z,15.20
2023-04-18T13:01:43.879Z,15.10
2023-04-18T13:07:01.633Z,15.00
2023-04-18T13:09:28.089Z,15.10
2023-04-18T13:11:57.531Z,15.10
2023-04-18T13:14:24.049Z,15.10
2023-04-18T13:16:50.559Z,15.10
2023-04-18T13:19:17.067Z,15.10
2023-04-18T13:21:43.546Z,15.10
2023-04-18T13:24:10.035Z,15.20
2023-04-18T13:26:36.536Z,15.10
2023-04-18T13:29:03.033Z,15.10
2023-04-18T13:31:29.524Z,15.10
2023-04-18T13:33:56.060Z,15.20
2023-04-18T13:36:22.595Z,15.20
2023-04-18T13:38:49.524Z,15.20
2023-04-18T13:41:15.985Z,15.20
2023-04-18T13:43:42.479Z,15.10
2023-04-18T13:46:09.017Z,15.10
2023-04-18T13:48:35.563Z,15.10
2023-04-18T13:51:02.032Z,15.10
2023-04-18T13:53:30.204Z,15.10
2023-04-18T13:55:57.450Z,15.10
2023-04-18T13:58:23.922Z,15.10
2023-04-18T14:00:50.404Z,15.00
2023-04-18T14:03:21.724Z,15.00
2023-04-18T14:05:51.064Z,15.00
2023-04-18T14:08:17.542Z,15.00
2023-04-18T14:10:44.010Z,15.10
2023-04-18T14:13:10.475Z,15.10
2023-04-18T14:15:36.992Z,15.10
2023-04-18T14:18:03.613Z,15.10
2023-04-18T14:20:30.175Z,15.10
2023-04-18T14:22:56.679Z,15.10
2023-04-18T14:25:23.193Z,15.10
2023-04-18T14:27:49.711Z,15.10
2023-04-18T14:30:21.652Z,15.10
2023-04-18T14:32:48.317Z,15.10
2023-04-18T14:35:14.834Z,15.10
2023-04-18T14:37:41.315Z,15.10
2023-04-18T14:40:07.775Z,15.20
2023-04-18T14:42:34.259Z,15.20
2023-04-18T14:45:00.748Z,15.20
2023-04-18T14:47:27.275Z,15.10
2023-04-18T14:49:53.771Z,15.10
2023-04-18T14:52:20.227Z,15.10
2023-04-18T14:54:46.702Z,15.20
2023-04-18T14:57:13.217Z,15.20
2023-04-18T14:59:39.687Z,15.20
2023-04-18T15:02:06.325Z,15.20
2023-04-18T15:04:32.927Z,15.20
2023-04-18T15:06:59.454Z,15.20
2023-04-18T15:09:25.945Z,15.20
2023-04-18T15:11:52.427Z,15.10
2023-04-18T15:14:18.909Z,15.10
2023-04-18T15:16:45.420Z,15.20
2023-04-18T15:19:11.951Z,15.20
2023-04-18T15:21:38.430Z,15.20
2023-04-18T15:24:04.914Z,15.30
2023-04-18T15:26:33.152Z,15.30
2023-04-18T15:29:03.685Z,15.30
2023-04-18T15:31:30.214Z,15.20
2023-04-18T15:33:56.698Z,15.30
2023-04-18T15:36:23.175Z,15.30
2023-04-18T15:38:49.653Z,15.30
2023-04-18T15:41:16.108Z,15.30
2023-04-18T15:43:42.593Z,15.30
2023-04-18T15:46:09.158Z,15.30
2023-04-18T15:48:35.645Z,15.40
2023-04-18T15:51:02.130Z,15.50
2023-04-18T15:53:28.643Z,15.40
2023-04-18T15:55:55.114Z,15.40
2023-04-18T15:58:21.587Z,15.50
2023-04-18T16:00:48.054Z,15.50
2023-04-18T16:03:14.763Z,15.50
2023-04-18T16:05:41.363Z,15.40
2023-04-18T16:08:07.844Z,15.50
2023-04-18T16:10:34.337Z,15.50
2023-04-18T16:13:00.836Z,15.50
2023-04-18T16:15:27.298Z,15.50
2023-04-18T16:17:53.901Z,15.50
2023-04-18T16:20:20.402Z,15.50
2023-04-18T16:22:46.882Z,15.60
2023-04-18T16:25:13.363Z,15.60
2023-04-18T16:27:39.848Z,15.60
2023-04-18T16:30:06.324Z,15.60
2023-04-18T16:32:32.810Z,15.60
2023-04-18T16:34:59.324Z,15.60
2023-04-18T16:37:25.814Z,15.60
2023-04-18T16:39:52.283Z,15.60
2023-04-18T16:42:18.773Z,15.60
2023-04-18T16:44:45.229Z,15.60
2023-04-18T16:47:11.689Z,15.60
2023-04-18T16:49:38.179Z,15.60
2023-04-18T16:52:04.676Z,15.60
2023-04-18T16:54:31.174Z,15.60
2023-04-18T16:56:57.667Z,15.50
2023-04-18T16:59:24.139Z,15.60
2023-04-18T17:01:50.734Z,15.60
2023-04-18T17:04:17.556Z,15.60
2023-04-18T17:06:44.193Z,15.60
2023-04-18T17:09:10.660Z,15.60
2023-04-18T17:11:39.421Z,15.60
2023-04-18T17:14:06.266Z,15.60
2023-04-18T17:16:32.818Z,15.60
2023-04-18T17:18:59.294Z,15.60
2023-04-18T17:21:25.767Z,15.70
2023-04-18T17:23:52.276Z,15.60
2023-04-18T17:26:18.740Z,15.60
2023-04-18T17:28:45.215Z,15.60
2023-04-18T17:31:11.758Z,15.70
2023-04-18T17:33:38.276Z,15.60
2023-04-18T17:36:06.098Z,15.60
2023-04-18T17:38:32.791Z,15.60
2023-04-18T17:40:59.267Z,15.50
2023-04-18T17:43:25.751Z,15.60
2023-04-18T17:45:52.286Z,15.60
2023-04-18T17:48:18.762Z,15.50
2023-04-18T17:50:45.233Z,15.50
2023-04-18T17:53:11.690Z,15.50
2023-04-18T17:55:38.215Z,15.50
2023-04-18T17:58:04.681Z,15.50
2023-04-18T18:00:31.151Z,15.50
2023-04-18T18:02:57.708Z,15.50
2023-04-18T18:05:24.247Z,15.50
2023-04-18T18:07:50.709Z,15.50
2023-04-18T18:10:17.760Z,15.50
2023-04-18T18:12:44.226Z,15.50
2023-04-18T18:15:10.697Z,15.50
2023-04-18T18:17:37.216Z,15.50
2023-04-18T18:20:03.737Z,15.50
2023-04-18T18:22:30.208Z,15.50
2023-04-18T18:24:56.677Z,15.50
2023-04-18T18:27:23.150Z,15.40
2023-04-18T18:29:49.633Z,15.40
2023-04-18T18:32:16.080Z,15.50
2023-04-18T18:34:42.547Z,15.50
2023-04-18T18:37:10.126Z,15.40
2023-04-18T18:39:36.621Z,15.40
2023-04-18T18:42:03.109Z,15.40
2023-04-18T18:44:29.599Z,15.40
2023-04-18T18:46:56.141Z,15.40
2023-04-18T18:49:22.633Z,15.30
2023-04-18T18:51:49.106Z,15.30
2023-04-18T18:54:15.597Z,15.40
2023-04-18T18:56:42.057Z,15.40
2023-04-18T18:59:08.528Z,15.40
2023-04-18T19:01:35.053Z,15.30
2023-04-18T19:04:01.712Z,15.30
2023-04-18T19:06:28.389Z,15.30
2023-04-18T19:08:54.873Z,15.30
2023-04-18T19:11:21.407Z,15.30
2023-04-18T19:13:47.864Z,15.30
2023-04-18T19:16:14.372Z,15.30
2023-04-18T19:18:40.903Z,15.30
2023-04-18T19:21:07.383Z,15.20
2023-04-18T19:23:33.839Z,15.20
2023-04-18T19:26:00.304Z,15.20
2023-04-18T19:28:26.812Z,15.30
2023-04-18T19:30:53.295Z,15.20
2023-04-18T19:33:19.760Z,15.20
2023-04-18T19:35:46.218Z,15.30
2023-04-18T19:38:12.684Z,15.20
2023-04-18T19:40:39.163Z,15.20
2023-04-18T19:43:05.650Z,15.20
2023-04-18T19:45:32.251Z,15.20
2023-04-18T19:47:58.842Z,15.20
2023-04-18T19:50:25.335Z,15.20
2023-04-18T19:52:51.808Z,15.20
2023-04-18T19:55:18.281Z,15.20
2023-04-18T19:57:44.753Z,15.20
2023-04-18T20:00:11.231Z,15.20
2023-04-18T20:02:37.841Z,15.20
2023-04-18T20:05:04.591Z,15.20
2023-04-18T20:07:31.231Z,15.20
2023-04-18T20:09:57.716Z,15.20
2023-04-18T20:12:24.185Z,15.20
2023-04-18T20:14:50.641Z,15.10
2023-04-18T20:17:17.106Z,15.10
2023-04-18T20:19:43.576Z,15.20
2023-04-18T20:22:10.057Z,15.10
2023-04-18T20:24:36.520Z,15.10
2023-04-18T20:27:02.995Z,15.10
2023-04-18T20:29:29.467Z,15.10
2023-04-18T20:31:55.941Z,15.10
2023-04-18T20:34:22.396Z,15.10
2023-04-18T20:36:48.870Z,15.10
2023-04-18T20:39:15.450Z,15.10
2023-04-18T20:41:42.124Z,15.10
2023-04-18T20:44:08.572Z,15.10
2023-04-18T20:46:35.168Z,15.10
2023-04-18T20:49:01.776Z,15.10
2023-04-18T20:51:28.265Z,15.10
2023-04-18T20:53:54.753Z,15.10
2023-04-18T20:56:21.226Z,15.10
2023-04-18T20:58:47.678Z,15.10
2023-04-18T21:01:14.160Z,15.10
2023-04-18T21:03:40.888Z,15.10
2023-04-18T21:06:07.495Z,15.10
2023-04-18T21:08:33.947Z,15.10
2023-04-18T21:11:00.422Z,15.10
2023-04-18T21:13:26.892Z,15.10
2023-04-18T21:15:53.431Z,15.10
2023-04-18T21:18:19.921Z,15.10
2023-04-18T21:20:46.391Z,15.10
2023-04-18T21:23:12.855Z,15.10
2023-04-18T21:25:39.338Z,15.10
2023-04-18T21:28:05.801Z,15.10
2023-04-18T21:30:32.294Z,15.10
2023-04-18T21:32:58.829Z,15.10
2023-04-18T21:35:25.337Z,15.10
2023-04-18T21:37:51.804Z,15.10
2023-04-18T21:40:18.274Z,15.10
2023-04-18T21:42:44.754Z,15.10
2023-04-18T21:45:11.244Z,15.10
2023-04-18T21:47:37.740Z,15.00
2023-04-18T21:50:04.320Z,15.10
2023-04-18T21:52:30.795Z,15.10
2023-04-18T21:54:57.249Z,15.10
2023-04-18T21:57:23.740Z,15.10
2023-04-18T21:59:50.214Z,15.10
2023-04-18T22:02:16.792Z,15.10
2023-04-18T22:04:43.348Z,15.00
2023-04-18T22:07:09.843Z,15.00
2023-04-18T22:09:36.309Z,15.00
2023-04-18T22:12:02.787Z,15.00
2023-04-18T22:14:29.267Z,15.00
2023-04-18T22:16:55.856Z,15.00
2023-04-18T22:19:22.391Z,15.00
2023-04-18T22:21:48.901Z,15.00
2023-04-18T22:24:15.704Z,15.00
2023-04-18T22:26:42.369Z,15.00
2023-04-18T22:29:08.829Z,15.00
2023-04-18T22:31:35.301Z,15.00
2023-04-18T22:34:01.751Z,15.10
2023-04-18T22:36:28.224Z,15.10
2023-04-18T22:38:54.703Z,15.10
2023-04-18T22:41:21.184Z,15.10
2023-04-18T22:43:47.631Z,15.00
2023-04-18T22:46:14.226Z,15.00
2023-04-18T22:48:40.751Z,15.10
2023-04-18T22:51:07.217Z,15.10
2023-04-18T22:53:33.820Z,15.10
2023-04-18T22:56:00.292Z,15.00
2023-04-18T22:58:26.776Z,15.00
2023-04-18T23:00:53.259Z,15.00
2023-04-18T23:03:19.800Z,15.00
2023-04-18T23:05:46.389Z,15.00
2023-04-18T23:08:12.870Z,15.10
2023-04-18T23:10:39.354Z,15.10
2023-04-18T23:13:05.839Z,15.00
2023-04-18T23:15:32.426Z,15.00
2023-04-18T23:17:58.999Z,15.10
2023-04-18T23:20:25.525Z,15.10
2023-04-18T23:22:52.054Z,15.10
2023-04-18T23:25:18.517Z,15.00
2023-04-18T23:27:44.990Z,15.10
2023-04-18T23:30:11.448Z,15.00
2023-04-18T23:32:37.966Z,15.00
2023-04-18T23:35:04.483Z,15.10
2023-04-18T23:37:30.961Z,15.00
2023-04-18T23:39:57.423Z,15.00
2023-04-18T23:42:23.924Z,15.10
2023-04-18T23:44:50.416Z,15.10
2023-04-18T23:47:17.090Z,15.00
2023-04-18T23:49:43.661Z,15.00
2023-04-18T23:52:10.131Z,15.10
2023-04-18T23:54:36.594Z,15.00
2023-04-18T23:57:03.038Z,15.00
2023-04-18T23:59:29.507Z,15.10
